Terminal Aerodrome Forecast
Issued by NWS

Home | Current Version | Previous Version | Text Only | Print | Product List | Glossary On
Versions: 1 2 3 4 5 6 7 8 9 10 11 12 13 14 15 16 17 18 19 20 21 22
699
FTUS43 KDLH 240751 AAB
TAFHIB
TAF AMD
KHIB 240751Z 2408/2506 VRB03KT P6SM -RA FEW002 SCT009
     FM240830 VRB02KT 3SM BR SCT004 OVC007
      TEMPO 2409/2412 3/4SM BR
     FM241400 29008KT P6SM SCT015
     FM241700 30012G19KT P6SM SCT025
     FM250100 30005KT P6SM SCT100=

USA.gov is the U.S. government's official web portal to all federal, state and local government web resources and services.